This is the latest recevied weather packets stored in our database for station/object K3PPP. If no packets are shown the sender has not sent any weather packets the latest 10 day(s).
| Time | Temp. | Humidity | Pressure | Rain* | Wind** | Luminosity | Snow |
|---|---|---|---|---|---|---|---|
| 1777415852 | 16.67° C | 82% | 1015.4 hPa | 0 mm | - | 74 W/m² | - |
| 1777415547 | 16.67° C | 81% | 1015.6 hPa | 0 mm | - | 90 W/m² | - |
| 1777415244 | 16.67° C | 81% | 1015.6 hPa | 0 mm | - | 89 W/m² | - |
| 1777414939 | 17.22° C | 80% | 1015.5 hPa | 0 mm | - | 58 W/m² | - |
| 1777414639 | 17.78° C | 79% | 1015.4 hPa | 0 mm | - | 66 W/m² | - |
| 1777414334 | 17.78° C | 79% | 1015.5 hPa | 0 mm | - | 113 W/m² | - |
| 1777414029 | 17.22° C | 83% | 1015.4 hPa | 0 mm | - | 220 W/m² | - |
| 1777413723 | 16.67° C | 83% | 1015.4 hPa | 0 mm | - | 164 W/m² | - |
| 1777413420 | 16.67° C | 83% | 1015.4 hPa | 0 mm | - | 133 W/m² | - |
| 1777413116 | 16.67° C | 83% | 1015.3 hPa | 0 mm | - | 105 W/m² | - |
| 1777412811 | 17.22° C | 82% | 1015.2 hPa | 0 mm | - | 108 W/m² | - |
| 1777412505 | 17.22° C | 82% | 1015.3 hPa | 0 mm | - | 162 W/m² | - |
| 1777412202 | 16.67° C | 83% | 1015.2 hPa | 0 mm | - | 212 W/m² | - |
| 1777411899 | 16.67° C | 83% | 1015.2 hPa | 0 mm | - | 140 W/m² | - |
| 1777411598 | 16.67° C | 85% | 1015.3 hPa | 0 mm | - | 186 W/m² | - |
| 1777411293 | 16.67° C | 85% | 1015.3 hPa | 0 mm | - | 125 W/m² | - |
| 1777410992 | 16.67° C | 84% | 1015.2 hPa | 0 mm | - | 170 W/m² | - |
| 1777410686 | 16.67° C | 86% | 1015.2 hPa | 0 mm | - | 183 W/m² | - |
| 1777410381 | 17.22° C | 84% | 1015.3 hPa | 0 mm | - | 139 W/m² | - |
| 1777410080 | 17.22° C | 85% | 1015.2 hPa | 0 mm | - | 213 W/m² | - |
| 1777409775 | 17.22° C | 84% | 1015.3 hPa | 0 mm | - | 142 W/m² | - |
| 1777409471 | 16.11° C | 89% | 1015.5 hPa | 0 mm | - | 171 W/m² | - |
| 1777409167 | 16.11° C | 92% | 1015.4 hPa | 0 mm | - | 288 W/m² | - |
| 1777408863 | 16.11° C | 93% | 1015.6 hPa | 0 mm | - | 151 W/m² | - |
| 1777408559 | 16.11° C | 96% | 1015.5 hPa | 0 mm | - | 581 W/m² | - |
* Rain latest hour (hover to see other rain measurements)
** Current wind speed in m/s (hover to see current wind gust speed)